Time,TemperatureF,DewpointF,PressureIn,WindDirection,WindDirectionDegrees,WindSpeedMPH,WindSpeedGustMPH,Humidity,HourlyPrecipIn,Conditions,Clouds,dailyrainin,SoftwareType,DateUTC
2013-04-07 00:02:00,33.8,21.4,0.00,West,270,2.2,2.2,60,0.00,,,0.00,VWS V13.01,2013-04-07 05:02:00,
2013-04-07 00:07:00,33.8,21.4,0.00,NW,314,0.0,0.0,60,0.00,,,0.00,VWS V13.01,2013-04-07 05:07:00,
2013-04-07 00:12:00,33.8,21.4,0.00,NW,310,0.0,4.5,60,0.00,,,0.00,VWS V13.01,2013-04-07 05:12:00,
2013-04-07 00:17:00,33.8,21.4,0.00,WNW,300,2.7,3.6,60,0.00,,,0.00,VWS V13.01,2013-04-07 05:17:00,
2013-04-07 00:22:00,33.8,21.4,0.00,NW,310,0.0,0.0,60,0.00,,,0.00,VWS V13.01,2013-04-07 05:22:00,
2013-04-07 00:27:00,33.8,21.4,0.00,NW,314,2.2,4.0,60,0.00,,,0.00,VWS V13.01,2013-04-07 05:27:00,
2013-04-07 00:32:00,33.8,21.4,0.00,NW,313,8.1,8.7,60,0.00,,,0.00,VWS V13.01,2013-04-07 05:32:00,
2013-04-07 00:37:00,33.8,21.0,0.00,North,353,4.9,6.7,59,0.00,,,0.00,VWS V13.01,2013-04-07 05:37:00,
2013-04-07 00:42:00,33.8,21.0,0.00,NW,317,0.0,0.0,59,0.00,,,0.00,VWS V13.01,2013-04-07 05:42:00,
2013-04-07 00:47:00,33.8,21.0,0.00,NW,304,0.0,0.0,59,0.00,,,0.00,VWS V13.01,2013-04-07 05:47:00,
2013-04-07 00:52:00,33.8,21.0,0.00,North,353,2.7,2.7,59,0.00,,,0.00,VWS V13.01,2013-04-07 05:52:00,
2013-04-07 00:57:00,33.8,20.6,0.00,North,6,0.0,0.0,58,0.00,,,0.00,VWS V13.01,2013-04-07 05:57:00,
2013-04-07 01:02:00,33.8,20.6,0.00,NW,321,2.7,2.7,58,0.00,,,0.00,VWS V13.01,2013-04-07 06:02:00,
2013-04-07 01:07:00,33.6,20.8,0.00,NNW,330,0.0,0.0,59,0.00,,,0.00,VWS V13.01,2013-04-07 06:07:00,
2013-04-07 01:12:00,33.6,20.8,0.00,WNW,297,0.0,0.0,59,0.00,,,0.00,VWS V13.01,2013-04-07 06:12:00,
2013-04-07 01:17:00,33.6,20.8,0.00,NW,304,3.1,6.3,59,0.00,,,0.00,VWS V13.01,2013-04-07 06:17:00,
2013-04-07 01:22:00,33.6,20.8,0.00,NW,313,4.9,4.9,59,0.00,,,0.00,VWS V13.01,2013-04-07 06:22:00,
2013-04-07 01:27:00,33.6,21.2,0.00,West,278,2.7,2.7,60,0.00,,,0.00,VWS V13.01,2013-04-07 06:27:00,
2013-04-07 01:32:00,33.6,21.2,0.00,WNW,297,0.0,0.0,60,0.00,,,0.00,VWS V13.01,2013-04-07 06:32:00,
2013-04-07 01:37:00,33.6,21.6,0.00,NNW,339,3.6,3.6,61,0.00,,,0.00,VWS V13.01,2013-04-07 06:37:00,
2013-04-07 01:42:00,33.6,21.6,0.00,NW,305,3.1,3.1,61,0.00,,,0.00,VWS V13.01,2013-04-07 06:42:00,
2013-04-07 01:47:00,33.6,21.6,0.00,NW,324,0.0,0.0,61,0.00,,,0.00,VWS V13.01,2013-04-07 06:47:00,
2013-04-07 01:52:00,33.6,21.6,0.00,NNW,334,3.6,3.6,61,0.00,,,0.00,VWS V13.01,2013-04-07 06:52:00,
2013-04-07 01:57:00,33.6,22.0,0.00,NW,309,0.0,3.6,62,0.00,,,0.00,VWS V13.01,2013-04-07 06:57:00,
2013-04-07 02:02:00,33.8,21.8,0.00,North,0,0.0,2.2,61,0.00,,,0.00,VWS V13.01,2013-04-07 07:02:00,
2013-04-07 02:07:00,33.8,22.2,0.00,NNW,334,4.0,4.0,62,0.00,,,0.00,VWS V13.01,2013-04-07 07:07:00,
2013-04-07 02:12:00,33.8,22.2,0.00,NW,314,3.6,3.6,62,0.00,,,0.00,VWS V13.01,2013-04-07 07:12:00,
2013-04-07 02:17:00,33.8,22.2,0.00,NW,322,0.0,0.0,62,0.00,,,0.00,VWS V13.01,2013-04-07 07:17:00,
2013-04-07 02:22:00,33.8,22.2,0.00,NW,315,0.0,0.0,62,0.00,,,0.00,VWS V13.01,2013-04-07 07:22:00,
2013-04-07 02:27:00,33.8,22.2,0.00,NW,314,0.0,0.0,62,0.00,,,0.00,VWS V13.01,2013-04-07 07:27:00,
2013-04-07 02:32:00,33.8,22.2,0.00,NNW,345,5.4,5.4,62,0.00,,,0.00,VWS V13.01,2013-04-07 07:32:00,
2013-04-07 02:37:00,33.8,22.2,0.00,WNW,295,0.0,2.2,62,0.00,,,0.00,VWS V13.01,2013-04-07 07:37:00,
2013-04-07 02:42:00,33.8,22.2,0.00,NW,319,0.0,0.0,62,0.00,,,0.00,VWS V13.01,2013-04-07 07:42:00,
2013-04-07 02:47:00,33.8,22.2,0.00,NW,324,0.0,2.7,62,0.00,,,0.00,VWS V13.01,2013-04-07 07:47:00,
2013-04-07 02:52:00,33.8,22.2,0.00,NW,304,0.0,2.7,62,0.00,,,0.00,VWS V13.01,2013-04-07 07:52:00,
2013-04-07 02:57:00,33.8,22.2,0.00,NW,311,0.0,2.2,62,0.00,,,0.00,VWS V13.01,2013-04-07 07:57:00,
2013-04-07 03:02:00,34.0,22.4,0.00,WNW,290,0.0,0.0,62,0.00,,,0.00,VWS V13.01,2013-04-07 08:02:00,
2013-04-07 03:07:00,34.0,22.4,0.00,NW,305,0.0,0.0,62,0.00,,,0.00,VWS V13.01,2013-04-07 08:07:00,
2013-04-07 03:12:00,34.0,22.4,0.00,NNW,334,0.0,0.0,62,0.00,,,0.00,VWS V13.01,2013-04-07 08:12:00,
2013-04-07 03:17:00,34.0,22.4,0.00,NW,325,3.6,3.6,62,0.00,,,0.00,VWS V13.01,2013-04-07 08:17:00,
2013-04-07 03:22:00,34.0,22.4,0.00,NNW,337,2.2,2.2,62,0.00,,,0.00,VWS V13.01,2013-04-07 08:22:00,
2013-04-07 03:27:00,34.0,22.4,0.00,NNW,330,0.0,0.0,62,0.00,,,0.00,VWS V13.01,2013-04-07 08:27:00,
2013-04-07 03:32:00,34.0,22.4,0.00,WNW,297,0.0,3.6,62,0.00,,,0.00,VWS V13.01,2013-04-07 08:32:00,
2013-04-07 03:37:00,34.0,22.4,0.00,NW,325,0.0,0.0,62,0.00,,,0.00,VWS V13.01,2013-04-07 08:37:00,
2013-04-07 03:42:00,34.2,22.5,0.00,NW,317,0.0,0.0,62,0.00,,,0.00,VWS V13.01,2013-04-07 08:42:00,
2013-04-07 03:47:00,34.2,22.5,0.00,NW,320,0.0,3.1,62,0.00,,,0.00,VWS V13.01,2013-04-07 08:47:00,
2013-04-07 03:52:00,34.2,22.5,0.00,NW,324,2.7,5.4,62,0.00,,,0.00,VWS V13.01,2013-04-07 08:52:00,
2013-04-07 03:57:00,34.2,22.5,0.00,North,350,3.1,4.0,62,0.00,,,0.00,VWS V13.01,2013-04-07 08:57:00,
2013-04-07 04:02:00,34.2,22.5,0.00,NNW,333,3.1,3.1,62,0.00,,,0.00,VWS V13.01,2013-04-07 09:02:00,
2013-04-07 04:07:00,34.3,22.7,0.00,NW,308,0.0,3.1,62,0.00,,,0.00,VWS V13.01,2013-04-07 09:07:00,
2013-04-07 04:12:00,34.2,22.5,0.00,NW,321,0.0,0.0,62,0.00,,,0.00,VWS V13.01,2013-04-07 09:12:00,
2013-04-07 04:17:00,34.2,22.1,0.00,NW,308,3.1,4.0,61,0.00,,,0.00,VWS V13.01,2013-04-07 09:17:00,
2013-04-07 04:23:00,34.2,22.1,0.00,NNW,328,0.0,0.0,61,0.00,,,0.00,VWS V13.01,2013-04-07 09:23:00,
2013-04-07 04:28:00,34.2,22.1,0.00,NW,322,2.7,3.1,61,0.00,,,0.00,VWS V13.01,2013-04-07 09:28:00,
2013-04-07 04:33:00,34.2,22.1,0.00,NNW,330,2.7,4.0,61,0.00,,,0.00,VWS V13.01,2013-04-07 09:33:00,
2013-04-07 04:38:00,34.3,22.3,0.00,NNW,335,0.0,3.1,61,0.00,,,0.00,VWS V13.01,2013-04-07 09:38:00,
2013-04-07 04:43:00,34.3,22.3,0.00,NNW,333,0.0,0.0,61,0.00,,,0.00,VWS V13.01,2013-04-07 09:43:00,
2013-04-07 04:48:00,34.3,22.3,0.00,North,0,0.0,0.0,61,0.00,,,0.00,VWS V13.01,2013-04-07 09:48:00,
2013-04-07 04:53:00,34.3,22.3,0.00,NW,313,2.7,2.7,61,0.00,,,0.00,VWS V13.01,2013-04-07 09:53:00,
2013-04-07 04:58:00,34.3,22.3,0.00,NNW,327,0.0,0.0,61,0.00,,,0.00,VWS V13.01,2013-04-07 09:58:00,
2013-04-07 05:03:00,34.3,22.3,0.00,WNW,288,0.0,3.6,61,0.00,,,0.00,VWS V13.01,2013-04-07 10:03:00,
2013-04-07 05:08:00,34.3,22.3,0.00,NW,313,0.0,0.0,61,0.00,,,0.00,VWS V13.01,2013-04-07 10:08:00,
2013-04-07 05:13:00,34.3,22.3,0.00,WNW,303,4.0,5.4,61,0.00,,,0.00,VWS V13.01,2013-04-07 10:13:00,
2013-04-07 05:18:00,34.3,22.3,0.00,NW,326,0.0,0.0,61,0.00,,,0.00,VWS V13.01,2013-04-07 10:18:00,
2013-04-07 05:23:00,34.3,22.7,0.00,WNW,303,0.0,0.0,62,0.00,,,0.00,VWS V13.01,2013-04-07 10:23:00,
2013-04-07 05:28:00,34.3,22.7,0.00,WNW,303,3.6,4.0,62,0.00,,,0.00,VWS V13.01,2013-04-07 10:28:00,
2013-04-07 05:33:00,34.5,22.9,0.00,WNW,299,0.0,0.0,62,0.00,,,0.00,VWS V13.01,2013-04-07 10:33:00,
2013-04-07 05:38:00,34.3,22.7,0.00,NW,320,0.0,0.0,62,0.00,,,0.00,VWS V13.01,2013-04-07 10:38:00,
2013-04-07 05:43:00,34.3,22.7,0.00,NNW,340,5.8,5.8,62,0.00,,,0.00,VWS V13.01,2013-04-07 10:43:00,
2013-04-07 05:48:00,34.3,22.7,0.00,NW,321,0.0,0.0,62,0.00,,,0.00,VWS V13.01,2013-04-07 10:48:00,
2013-04-07 05:53:00,34.3,22.7,0.00,WNW,297,0.0,0.0,62,0.00,,,0.00,VWS V13.01,2013-04-07 10:53:00,
2013-04-07 05:58:00,34.3,23.1,0.00,NW,304,0.0,0.0,63,0.00,,,0.00,VWS V13.01,2013-04-07 10:58:00,
2013-04-07 06:03:00,34.3,23.1,0.00,NW,313,0.0,2.7,63,0.00,,,0.00,VWS V13.01,2013-04-07 11:03:00,
2013-04-07 06:08:00,34.3,23.1,0.00,NW,312,0.0,0.0,63,0.00,,,0.00,VWS V13.01,2013-04-07 11:08:00,
2013-04-07 06:13:00,34.3,23.1,0.00,NW,326,0.0,0.0,63,0.00,,,0.00,VWS V13.01,2013-04-07 11:13:00,
2013-04-07 06:18:00,34.3,23.1,0.00,NNW,345,0.0,0.0,63,0.00,,,0.00,VWS V13.01,2013-04-07 11:18:00,
2013-04-07 06:23:00,34.3,23.1,0.00,NW,322,0.0,0.0,63,0.00,,,0.00,VWS V13.01,2013-04-07 11:23:00,
2013-04-07 06:28:00,34.3,23.1,0.00,NNW,344,0.0,0.0,63,0.00,,,0.00,VWS V13.01,2013-04-07 11:28:00,
2013-04-07 06:33:00,34.3,23.1,0.00,NW,320,3.1,3.1,63,0.00,,,0.00,VWS V13.01,2013-04-07 11:33:00,
2013-04-07 06:38:00,34.3,23.1,0.00,WNW,299,2.7,2.7,63,0.00,,,0.00,VWS V13.01,2013-04-07 11:38:00,
2013-04-07 06:43:00,34.3,23.1,0.00,WNW,302,4.0,4.0,63,0.00,,,0.00,VWS V13.01,2013-04-07 11:43:00,
2013-04-07 06:48:00,34.3,23.4,0.00,NW,325,3.6,4.5,64,0.00,,,0.00,VWS V13.01,2013-04-07 11:48:00,
2013-04-07 06:53:00,34.3,23.4,0.00,NW,313,0.0,0.0,64,0.00,,,0.00,VWS V13.01,2013-04-07 11:53:00,
2013-04-07 06:58:00,34.3,23.4,0.00,NW,325,0.0,0.0,64,0.00,,,0.00,VWS V13.01,2013-04-07 11:58:00,
2013-04-07 07:04:00,34.2,23.3,0.00,NW,325,0.0,3.1,64,0.00,,,0.00,VWS V13.01,2013-04-07 12:04:00,
2013-04-07 07:09:00,34.0,23.1,0.00,NW,312,0.0,2.2,64,0.00,,,0.00,VWS V13.01,2013-04-07 12:09:00,
2013-04-07 07:14:00,34.0,23.1,0.00,NNW,333,3.1,3.1,64,0.00,,,0.00,VWS V13.01,2013-04-07 12:14:00,
2013-04-07 07:19:00,34.0,23.5,0.00,WNW,299,0.0,0.0,65,0.00,,,0.00,VWS V13.01,2013-04-07 12:19:00,
2013-04-07 07:24:00,34.0,23.5,0.00,NW,314,0.0,0.0,65,0.00,,,0.00,VWS V13.01,2013-04-07 12:24:00,
2013-04-07 07:29:00,34.0,23.5,0.00,NW,314,0.0,0.0,65,0.00,,,0.00,VWS V13.01,2013-04-07 12:29:00,
2013-04-07 07:34:00,33.8,23.3,0.00,NW,317,0.0,0.0,65,0.00,,,0.00,VWS V13.01,2013-04-07 12:34:00,
2013-04-07 07:39:00,33.8,23.3,0.00,NW,317,0.0,0.0,65,0.00,,,0.00,VWS V13.01,2013-04-07 12:39:00,
2013-04-07 07:44:00,33.8,23.7,0.00,NNW,331,0.0,0.0,66,0.00,,,0.00,VWS V13.01,2013-04-07 12:44:00,
2013-04-07 07:49:00,33.8,23.7,0.00,NNW,331,0.0,0.0,66,0.00,,,0.00,VWS V13.01,2013-04-07 12:49:00,
2013-04-07 07:54:00,34.0,23.8,0.00,NNW,331,0.0,0.0,66,0.00,,,0.00,VWS V13.01,2013-04-07 12:54:00,
2013-04-07 07:59:00,34.0,23.8,0.00,NNW,328,0.0,2.2,66,0.00,,,0.00,VWS V13.01,2013-04-07 12:59:00,
2013-04-07 08:04:00,34.0,23.8,0.00,NNW,330,0.0,0.0,66,0.00,,,0.00,VWS V13.01,2013-04-07 13:04:00,
2013-04-07 08:09:00,34.2,24.0,0.00,NNW,330,0.0,0.0,66,0.00,,,0.00,VWS V13.01,2013-04-07 13:09:00,
2013-04-07 08:14:00,34.2,24.4,0.00,NNW,330,0.0,0.0,67,0.00,,,0.00,VWS V13.01,2013-04-07 13:14:00,
2013-04-07 08:19:00,34.2,24.4,0.00,NNW,330,0.0,0.0,67,0.00,,,0.00,VWS V13.01,2013-04-07 13:19:00,
2013-04-07 08:24:00,34.3,24.5,0.00,NNW,330,0.0,0.0,67,0.00,,,0.00,VWS V13.01,2013-04-07 13:24:00,
2013-04-07 08:29:00,34.3,24.5,0.00,NNW,330,0.0,0.0,67,0.00,,,0.00,VWS V13.01,2013-04-07 13:29:00,
2013-04-07 08:34:00,34.3,24.5,0.00,NNW,330,0.0,0.0,67,0.00,,,0.00,VWS V13.01,2013-04-07 13:34:00,
2013-04-07 08:39:00,34.3,24.5,0.00,NNW,330,0.0,0.0,67,0.00,,,0.00,VWS V13.01,2013-04-07 13:39:00,
2013-04-07 08:44:00,34.5,24.7,0.00,NNW,330,0.0,0.0,67,0.00,,,0.00,VWS V13.01,2013-04-07 13:44:00,
2013-04-07 08:49:00,34.5,25.1,0.00,NNW,330,0.0,0.0,68,0.00,,,0.00,VWS V13.01,2013-04-07 13:49:00,
2013-04-07 08:55:00,34.7,25.2,0.00,NNW,330,0.0,0.0,68,0.00,,,0.00,VWS V13.01,2013-04-07 13:55:00,
2013-04-07 09:00:00,34.9,25.4,0.00,NNW,330,0.0,0.0,68,0.00,,,0.00,VWS V13.01,2013-04-07 14:00:00,
2013-04-07 09:05:00,34.9,25.4,0.00,NNW,331,0.0,0.0,68,0.00,,,0.00,VWS V13.01,2013-04-07 14:05:00,
2013-04-07 09:10:00,35.1,25.6,0.00,NNW,344,0.0,0.0,68,0.00,,,0.00,VWS V13.01,2013-04-07 14:10:00,
2013-04-07 09:15:00,35.1,25.9,0.00,NNW,335,0.0,0.0,69,0.00,,,0.00,VWS V13.01,2013-04-07 14:15:00,
2013-04-07 09:20:00,35.2,26.1,0.00,North,353,0.0,0.0,69,0.00,,,0.00,VWS V13.01,2013-04-07 14:20:00,
2013-04-07 09:25:00,35.4,26.3,0.00,NW,321,2.2,2.2,69,0.00,,,0.00,VWS V13.01,2013-04-07 14:25:00,
2013-04-07 09:30:00,35.4,26.3,0.00,NNW,338,0.0,0.0,69,0.00,,,0.00,VWS V13.01,2013-04-07 14:30:00,
2013-04-07 09:35:00,35.4,26.3,0.00,North,350,2.2,2.2,69,0.00,,,0.00,VWS V13.01,2013-04-07 14:35:00,
2013-04-07 09:40:00,35.6,26.5,0.00,NNW,329,3.1,3.1,69,0.00,,,0.00,VWS V13.01,2013-04-07 14:40:00,
2013-04-07 09:45:00,35.6,26.5,0.00,NNW,345,4.9,4.9,69,0.00,,,0.00,VWS V13.01,2013-04-07 14:45:00,
2013-04-07 09:50:00,35.6,26.1,0.00,NNW,334,3.1,3.1,68,0.00,,,0.00,VWS V13.01,2013-04-07 14:50:00,
2013-04-07 09:55:00,35.6,25.7,0.00,NNW,336,3.1,3.1,67,0.00,,,0.00,VWS V13.01,2013-04-07 14:55:00,
2013-04-07 10:00:00,35.8,25.2,0.00,NNW,344,0.0,0.0,65,0.00,,,0.00,VWS V13.01,2013-04-07 15:00:00,
2013-04-07 10:05:00,35.8,24.8,0.00,NW,309,3.1,3.1,64,0.00,,,0.00,VWS V13.01,2013-04-07 15:05:00,
2013-04-07 10:10:00,35.6,22.3,0.00,North,353,4.0,4.0,58,0.00,,,0.00,VWS V13.01,2013-04-07 15:10:00,
2013-04-07 10:15:00,35.8,21.6,0.00,NW,325,0.0,0.0,56,0.00,,,0.00,VWS V13.01,2013-04-07 15:15:00,
2013-04-07 10:20:00,35.8,21.2,0.00,North,353,0.0,0.0,55,0.00,,,0.00,VWS V13.01,2013-04-07 15:20:00,
2013-04-07 10:25:00,36.0,21.0,0.00,NW,319,0.0,0.0,54,0.00,,,0.00,VWS V13.01,2013-04-07 15:25:00,
2013-04-07 10:30:00,36.1,21.1,0.00,NNW,327,2.2,2.7,54,0.00,,,0.00,VWS V13.01,2013-04-07 15:30:00,
2013-04-07 10:35:00,36.1,20.7,0.00,NNW,342,0.0,2.7,53,0.00,,,0.00,VWS V13.01,2013-04-07 15:35:00,
2013-04-07 10:40:00,36.1,20.2,0.00,NNW,327,3.6,3.6,52,0.00,,,0.00,VWS V13.01,2013-04-07 15:40:00,
2013-04-07 10:45:00,36.1,19.3,0.00,NNW,348,0.0,0.0,50,0.00,,,0.00,VWS V13.01,2013-04-07 15:45:00,
2013-04-07 10:50:00,36.3,19.9,0.00,North,357,2.2,2.2,51,0.00,,,0.00,VWS V13.01,2013-04-07 15:50:00,
2013-04-07 10:55:00,36.3,19.5,0.00,NNW,337,3.6,3.6,50,0.00,,,0.00,VWS V13.01,2013-04-07 15:55:00,
2013-04-07 11:00:00,36.1,19.3,0.00,NNW,336,2.7,4.0,50,0.00,,,0.00,VWS V13.01,2013-04-07 16:00:00,
2013-04-07 11:05:00,36.3,19.5,0.00,NNW,336,0.0,0.0,50,0.00,,,0.00,VWS V13.01,2013-04-07 16:05:00,
2013-04-07 11:10:00,36.5,20.1,0.00,NNW,336,0.0,0.0,51,0.00,,,0.00,VWS V13.01,2013-04-07 16:10:00,
2013-04-07 11:15:00,36.5,20.1,0.00,North,353,0.0,2.7,51,0.00,,,0.00,VWS V13.01,2013-04-07 16:15:00,
2013-04-07 11:20:00,36.5,19.6,0.00,North,9,0.0,2.7,50,0.00,,,0.00,VWS V13.01,2013-04-07 16:20:00,
2013-04-07 11:25:00,36.7,19.8,0.00,North,357,0.0,3.1,50,0.00,,,0.00,VWS V13.01,2013-04-07 16:25:00,
2013-04-07 11:30:00,36.7,19.8,0.00,NW,320,2.7,3.6,50,0.00,,,0.00,VWS V13.01,2013-04-07 16:30:00,
2013-04-07 11:35:00,36.7,19.3,0.00,North,5,2.7,3.1,49,0.00,,,0.00,VWS V13.01,2013-04-07 16:35:00,
2013-04-07 11:40:00,36.7,19.3,0.00,North,350,0.0,0.0,49,0.00,,,0.00,VWS V13.01,2013-04-07 16:40:00,
2013-04-07 11:45:00,36.9,19.5,0.00,NNW,343,0.0,0.0,49,0.00,,,0.00,VWS V13.01,2013-04-07 16:45:00,
2013-04-07 11:50:00,36.9,19.5,0.00,North,0,2.7,2.7,49,0.00,,,0.00,VWS V13.01,2013-04-07 16:50:00,
2013-04-07 11:55:00,36.7,18.9,0.00,NNW,346,2.2,2.7,48,0.00,,,0.00,VWS V13.01,2013-04-07 16:55:00,
2013-04-07 12:01:00,36.9,19.0,0.00,NNW,342,2.7,3.6,48,0.00,,,0.00,VWS V13.01,2013-04-07 17:01:00,
2013-04-07 12:06:00,36.9,19.0,0.00,North,353,2.2,2.2,48,0.00,,,0.00,VWS V13.01,2013-04-07 17:06:00,
2013-04-07 12:11:00,37.0,19.2,0.00,North,353,0.0,0.0,48,0.00,,,0.00,VWS V13.01,2013-04-07 17:11:00,
2013-04-07 12:16:00,37.2,19.8,0.00,North,353,0.0,0.0,49,0.00,,,0.00,VWS V13.01,2013-04-07 17:16:00,
2013-04-07 12:21:00,37.2,19.8,0.00,North,6,0.0,0.0,49,0.00,,,0.00,VWS V13.01,2013-04-07 17:21:00,
2013-04-07 12:26:00,37.4,19.0,0.00,SE,129,2.7,2.7,47,0.00,,,0.00,VWS V13.01,2013-04-07 17:26:00,
2013-04-07 12:31:00,37.0,18.7,0.00,South,175,0.0,0.0,47,0.00,,,0.00,VWS V13.01,2013-04-07 17:31:00,
2013-04-07 12:36:00,36.9,18.5,0.00,South,175,0.0,0.0,47,0.00,,,0.00,VWS V13.01,2013-04-07 17:36:00,
2013-04-07 12:41:00,37.0,19.2,0.00,South,176,0.0,0.0,48,0.00,,,0.00,VWS V13.01,2013-04-07 17:41:00,
2013-04-07 12:46:00,37.4,19.0,0.00,South,176,0.0,0.0,47,0.00,,,0.00,VWS V13.01,2013-04-07 17:46:00,
2013-04-07 12:51:00,37.4,19.0,0.00,NW,325,2.7,2.7,47,0.00,,,0.00,VWS V13.01,2013-04-07 17:51:00,
2013-04-07 12:56:00,37.6,19.2,0.00,NNW,337,0.0,0.0,47,0.00,,,0.00,VWS V13.01,2013-04-07 17:56:00,
2013-04-07 13:01:00,37.6,17.7,0.00,SSE,164,3.1,3.1,44,0.00,,,0.00,VWS V13.01,2013-04-07 18:01:00,
2013-04-07 13:06:00,37.4,17.5,0.00,SSE,153,3.1,3.1,44,0.00,,,0.00,VWS V13.01,2013-04-07 18:06:00,
2013-04-07 13:11:00,37.0,17.2,0.00,SSE,157,3.6,3.6,44,0.00,,,0.00,VWS V13.01,2013-04-07 18:11:00,
2013-04-07 13:16:00,37.0,17.7,0.00,SSE,153,4.0,4.0,45,0.00,,,0.00,VWS V13.01,2013-04-07 18:16:00,
2013-04-07 13:21:00,37.0,18.2,0.00,SSE,165,2.7,3.1,46,0.00,,,0.00,VWS V13.01,2013-04-07 18:21:00,
2013-04-07 13:26:00,37.0,18.2,0.00,SSE,165,0.0,2.2,46,0.00,,,0.00,VWS V13.01,2013-04-07 18:26:00,
2013-04-07 13:31:00,37.4,18.0,0.00,SSE,165,3.6,3.6,45,0.00,,,0.00,VWS V13.01,2013-04-07 18:31:00,
2013-04-07 13:36:00,37.2,17.3,0.00,South,181,4.0,4.0,44,0.00,,,0.00,VWS V13.01,2013-04-07 18:36:00,
2013-04-07 13:41:00,37.4,17.0,0.00,South,171,3.1,3.6,43,0.00,,,0.00,VWS V13.01,2013-04-07 18:41:00,
2013-04-07 13:46:00,37.4,17.0,0.00,SSW,192,3.6,3.6,43,0.00,,,0.00,VWS V13.01,2013-04-07 18:46:00,
2013-04-07 13:51:00,37.4,17.0,0.00,South,189,6.3,7.2,43,0.00,,,0.00,VWS V13.01,2013-04-07 18:51:00,
2013-04-07 13:57:00,37.4,17.0,0.00,South,185,5.8,7.6,43,0.00,,,0.00,VWS V13.01,2013-04-07 18:57:00,
2013-04-07 14:01:00,37.6,17.1,0.00,South,172,0.0,5.4,43,0.00,,,0.00,VWS V13.01,2013-04-07 19:01:00,
2013-04-07 14:07:00,37.9,17.5,0.00,South,184,4.9,5.8,43,0.00,,,0.00,VWS V13.01,2013-04-07 19:07:00,
2013-04-07 14:12:00,37.9,17.5,0.00,South,181,2.7,3.1,43,0.00,,,0.00,VWS V13.01,2013-04-07 19:12:00,
2013-04-07 14:17:00,38.3,17.2,0.00,South,185,5.4,5.4,42,0.00,,,0.00,VWS V13.01,2013-04-07 19:17:00,
2013-04-07 14:22:00,38.1,17.1,0.00,South,181,4.9,5.4,42,0.00,,,0.00,VWS V13.01,2013-04-07 19:22:00,
2013-04-07 14:27:00,37.9,16.9,0.00,South,187,3.1,3.6,42,0.00,,,0.00,VWS V13.01,2013-04-07 19:27:00,
2013-04-07 14:32:00,37.9,16.9,0.00,WSW,237,2.7,4.5,42,0.00,,,0.00,VWS V13.01,2013-04-07 19:32:00,
2013-04-07 14:37:00,37.9,16.9,0.00,South,183,5.4,5.8,42,0.00,,,0.00,VWS V13.01,2013-04-07 19:37:00,
2013-04-07 14:42:00,37.9,16.9,0.00,South,188,6.3,6.3,42,0.00,,,0.00,VWS V13.01,2013-04-07 19:42:00,
2013-04-07 14:47:00,37.6,16.6,0.00,SSW,192,5.4,5.8,42,0.00,,,0.00,VWS V13.01,2013-04-07 19:47:00,
2013-04-07 14:52:00,37.9,17.5,0.00,South,185,3.1,4.0,43,0.00,,,0.00,VWS V13.01,2013-04-07 19:52:00,
2013-04-07 14:57:00,38.3,17.8,0.00,SSE,148,0.0,2.7,43,0.00,,,0.00,VWS V13.01,2013-04-07 19:57:00,
2013-04-07 15:02:00,38.7,17.6,0.00,South,179,4.0,4.9,42,0.00,,,0.00,VWS V13.01,2013-04-07 20:02:00,
2013-04-07 15:07:00,38.7,17.6,0.00,South,182,4.0,4.0,42,0.00,,,0.00,VWS V13.01,2013-04-07 20:07:00,
2013-04-07 15:12:00,38.7,17.6,0.00,South,183,4.0,4.9,42,0.00,,,0.00,VWS V13.01,2013-04-07 20:12:00,
2013-04-07 15:17:00,38.8,17.7,0.00,South,183,3.6,3.6,42,0.00,,,0.00,VWS V13.01,2013-04-07 20:17:00,
2013-04-07 15:22:00,38.8,17.7,0.00,SE,124,2.2,2.2,42,0.00,,,0.00,VWS V13.01,2013-04-07 20:22:00,
2013-04-07 15:27:00,39.2,17.5,0.00,South,174,4.0,4.0,41,0.00,,,0.00,VWS V13.01,2013-04-07 20:27:00,
2013-04-07 15:32:00,39.2,17.5,0.00,South,178,2.7,2.7,41,0.00,,,0.00,VWS V13.01,2013-04-07 20:32:00,
2013-04-07 15:37:00,39.4,17.7,0.00,South,171,0.0,0.0,41,0.00,,,0.00,VWS V13.01,2013-04-07 20:37:00,
2013-04-07 15:42:00,39.6,18.4,0.00,South,181,3.1,3.1,42,0.00,,,0.00,VWS V13.01,2013-04-07 20:42:00,
2013-04-07 15:47:00,39.4,17.1,0.00,SSE,158,7.6,7.6,40,0.00,,,0.00,VWS V13.01,2013-04-07 20:47:00,
2013-04-07 15:52:00,39.2,16.9,0.00,SSE,157,3.1,4.0,40,0.00,,,0.00,VWS V13.01,2013-04-07 20:52:00,
2013-04-07 15:57:00,39.2,16.9,0.00,South,171,4.9,4.9,40,0.00,,,0.00,VWS V13.01,2013-04-07 20:57:00,
2013-04-07 16:02:00,39.2,17.5,0.00,South,191,0.0,2.7,41,0.00,,,0.00,VWS V13.01,2013-04-07 21:02:00,
2013-04-07 16:07:00,39.6,17.8,0.00,East,82,3.1,3.1,41,0.00,,,0.00,VWS V13.01,2013-04-07 21:07:00,
2013-04-07 16:12:00,39.9,18.1,0.00,ESE,108,2.2,3.1,41,0.00,,,0.00,VWS V13.01,2013-04-07 21:12:00,
2013-04-07 16:17:00,39.7,17.4,0.00,ESE,108,2.7,3.1,40,0.00,,,0.00,VWS V13.01,2013-04-07 21:17:00,
2013-04-07 16:22:00,39.7,17.4,0.00,ESE,108,0.0,0.0,40,0.00,,,0.00,VWS V13.01,2013-04-07 21:22:00,
2013-04-07 16:27:00,39.9,18.1,0.00,East,95,0.0,0.0,41,0.00,,,0.00,VWS V13.01,2013-04-07 21:27:00,
2013-04-07 16:32:00,40.1,18.3,0.00,East,100,0.0,0.0,41,0.00,,,0.00,VWS V13.01,2013-04-07 21:32:00,
2013-04-07 16:37:00,40.3,18.5,0.00,East,100,0.0,2.2,41,0.00,,,0.00,VWS V13.01,2013-04-07 21:37:00,
2013-04-07 16:42:00,40.3,17.9,0.00,East,100,0.0,0.0,40,0.00,,,0.00,VWS V13.01,2013-04-07 21:42:00,
2013-04-07 16:48:00,40.3,17.9,0.00,SSE,155,5.4,5.4,40,0.00,,,0.00,VWS V13.01,2013-04-07 21:48:00,
2013-04-07 16:53:00,40.3,17.9,0.00,SSE,157,3.1,3.1,40,0.00,,,0.00,VWS V13.01,2013-04-07 21:53:00,
2013-04-07 16:58:00,40.3,17.9,0.00,SSE,153,4.0,5.8,40,0.00,,,0.00,VWS V13.01,2013-04-07 21:58:00,
2013-04-07 17:03:00,40.1,17.7,0.00,South,178,4.0,4.0,40,0.00,,,0.00,VWS V13.01,2013-04-07 22:03:00,
2013-04-07 17:08:00,40.1,17.7,0.00,South,189,5.4,6.3,40,0.00,,,0.00,VWS V13.01,2013-04-07 22:08:00,
2013-04-07 17:13:00,40.3,17.3,0.00,South,181,8.7,8.7,39,0.00,,,0.00,VWS V13.01,2013-04-07 22:13:00,
2013-04-07 17:18:00,40.5,17.5,0.00,South,174,5.4,5.4,39,0.00,,,0.00,VWS V13.01,2013-04-07 22:18:00,
2013-04-07 17:23:00,40.6,17.6,0.00,SSE,157,3.6,3.6,39,0.00,,,0.00,VWS V13.01,2013-04-07 22:23:00,
2013-04-07 17:28:00,40.5,17.5,0.00,ESE,118,5.4,6.3,39,0.00,,,0.00,VWS V13.01,2013-04-07 22:28:00,
2013-04-07 17:33:00,40.5,18.1,0.00,SSE,164,5.4,5.4,40,0.00,,,0.00,VWS V13.01,2013-04-07 22:33:00,
2013-04-07 17:38:00,40.5,17.5,0.00,SSE,162,8.7,8.7,39,0.00,,,0.00,VWS V13.01,2013-04-07 22:38:00,
2013-04-07 17:43:00,40.6,17.6,0.00,South,177,5.4,8.3,39,0.00,,,0.00,VWS V13.01,2013-04-07 22:43:00,
2013-04-07 17:48:00,40.6,17.6,0.00,SSE,161,9.2,10.1,39,0.00,,,0.00,VWS V13.01,2013-04-07 22:48:00,
2013-04-07 17:53:00,40.5,17.5,0.00,SSE,154,4.0,5.4,39,0.00,,,0.00,VWS V13.01,2013-04-07 22:53:00,
2013-04-07 17:58:00,40.5,17.5,0.00,South,189,5.4,7.6,39,0.00,,,0.00,VWS V13.01,2013-04-07 22:58:00,
2013-04-07 18:03:00,40.6,17.6,0.00,SE,143,8.1,8.7,39,0.00,,,0.00,VWS V13.01,2013-04-07 23:03:00,
2013-04-07 18:08:00,40.5,17.5,0.00,SSW,196,6.3,6.3,39,0.00,,,0.00,VWS V13.01,2013-04-07 23:08:00,
2013-04-07 18:13:00,40.3,17.3,0.00,SSE,147,8.7,8.7,39,0.00,,,0.00,VWS V13.01,2013-04-07 23:13:00,
2013-04-07 18:18:00,40.3,17.3,0.00,SSE,155,9.6,9.6,39,0.00,,,0.00,VWS V13.01,2013-04-07 23:18:00,
2013-04-07 18:23:00,39.9,17.6,0.00,SSE,166,8.3,8.7,40,0.00,,,0.00,VWS V13.01,2013-04-07 23:23:00,
2013-04-07 18:28:00,39.9,17.6,0.00,South,190,8.1,8.1,40,0.00,,,0.00,VWS V13.01,2013-04-07 23:28:00,
2013-04-07 18:33:00,40.3,17.9,0.00,SSE,161,6.3,8.7,40,0.00,,,0.00,VWS V13.01,2013-04-07 23:33:00,
2013-04-07 18:38:00,40.3,17.9,0.00,South,171,8.1,8.7,40,0.00,,,0.00,VWS V13.01,2013-04-07 23:38:00,
2013-04-07 18:43:00,40.3,17.9,0.00,SSE,168,7.2,7.2,40,0.00,,,0.00,VWS V13.01,2013-04-07 23:43:00,
2013-04-07 18:48:00,40.3,17.9,0.00,South,188,6.3,6.3,40,0.00,,,0.00,VWS V13.01,2013-04-07 23:48:00,
2013-04-07 18:53:00,40.3,17.9,0.00,ESE,120,5.4,5.4,40,0.00,,,0.00,VWS V13.01,2013-04-07 23:53:00,
2013-04-07 18:58:00,40.3,17.9,0.00,SSE,151,6.3,6.7,40,0.00,,,0.00,VWS V13.01,2013-04-07 23:58:00,
2013-04-07 19:03:00,40.1,17.7,0.00,SSE,159,4.9,5.8,40,0.00,,,0.00,VWS V13.01,2013-04-08 00:03:00,
2013-04-07 19:08:00,39.7,17.4,0.00,SSE,166,4.5,4.5,40,0.00,,,0.00,VWS V13.01,2013-04-08 00:08:00,
2013-04-07 19:13:00,39.7,17.4,0.00,SSE,157,4.9,5.4,40,0.00,,,0.00,VWS V13.01,2013-04-08 00:13:00,
2013-04-07 19:18:00,39.7,17.4,0.00,ESE,113,4.9,4.9,40,0.00,,,0.00,VWS V13.01,2013-04-08 00:18:00,
2013-04-07 19:23:00,39.7,17.4,0.00,SSE,165,4.0,5.4,40,0.00,,,0.00,VWS V13.01,2013-04-08 00:23:00,
2013-04-07 19:28:00,39.7,17.4,0.00,SSE,168,4.0,4.0,40,0.00,,,0.00,VWS V13.01,2013-04-08 00:28:00,
2013-04-07 19:33:00,39.4,17.7,0.00,SE,139,4.0,4.0,41,0.00,,,0.00,VWS V13.01,2013-04-08 00:33:00,
2013-04-07 19:38:00,39.2,17.5,0.00,SE,130,4.0,4.0,41,0.00,,,0.00,VWS V13.01,2013-04-08 00:38:00,
2013-04-07 19:43:00,39.2,17.5,0.00,SSE,165,3.1,4.0,41,0.00,,,0.00,VWS V13.01,2013-04-08 00:43:00,
2013-04-07 19:48:00,38.7,17.6,0.00,SE,143,3.1,3.6,42,0.00,,,0.00,VWS V13.01,2013-04-08 00:48:00,
2013-04-07 19:54:00,38.3,17.8,0.00,SSE,157,4.0,4.0,43,0.00,,,0.00,VWS V13.01,2013-04-08 00:54:00,
2013-04-07 19:59:00,38.7,18.1,0.00,SSE,153,5.4,5.4,43,0.00,,,0.00,VWS V13.01,2013-04-08 00:59:00,
2013-04-07 20:05:00,38.7,18.1,0.00,SSE,158,4.0,4.0,43,0.00,,,0.00,VWS V13.01,2013-04-08 01:05:00,
2013-04-07 20:10:00,38.7,18.1,0.00,SSE,151,4.0,4.9,43,0.00,,,0.00,VWS V13.01,2013-04-08 01:10:00,
2013-04-07 20:15:00,38.5,17.9,0.00,SE,145,4.0,4.0,43,0.00,,,0.00,VWS V13.01,2013-04-08 01:15:00,
2013-04-07 20:20:00,38.3,17.8,0.00,SE,129,2.7,2.7,43,0.00,,,0.00,VWS V13.01,2013-04-08 01:20:00,
2013-04-07 20:25:00,37.9,18.0,0.00,SE,128,4.0,4.0,44,0.00,,,0.00,VWS V13.01,2013-04-08 01:25:00,
2013-04-07 20:30:00,37.8,17.8,0.00,SE,129,3.1,3.1,44,0.00,,,0.00,VWS V13.01,2013-04-08 01:30:00,
2013-04-07 20:35:00,37.6,18.2,0.00,ESE,117,2.7,3.1,45,0.00,,,0.00,VWS V13.01,2013-04-08 01:35:00,
2013-04-07 20:40:00,37.4,18.0,0.00,ESE,117,3.1,3.1,45,0.00,,,0.00,VWS V13.01,2013-04-08 01:40:00,
2013-04-07 20:45:00,37.4,18.5,0.00,ESE,114,3.1,3.6,46,0.00,,,0.00,VWS V13.01,2013-04-08 01:45:00,
2013-04-07 20:50:00,37.0,18.7,0.00,ESE,120,2.7,3.1,47,0.00,,,0.00,VWS V13.01,2013-04-08 01:50:00,
2013-04-07 20:55:00,37.0,18.7,0.00,ESE,120,3.1,3.1,47,0.00,,,0.00,VWS V13.01,2013-04-08 01:55:00,
2013-04-07 21:00:00,36.7,18.4,0.00,ESE,120,2.7,2.7,47,0.00,,,0.00,VWS V13.01,2013-04-08 02:00:00,
2013-04-07 21:05:00,36.5,19.2,0.00,ESE,119,4.9,4.9,49,0.00,,,0.00,VWS V13.01,2013-04-08 02:05:00,
2013-04-07 21:10:00,36.5,19.2,0.00,SE,128,3.1,3.6,49,0.00,,,0.00,VWS V13.01,2013-04-08 02:10:00,
2013-04-07 21:15:00,36.3,19.5,0.00,ESE,123,2.7,3.1,50,0.00,,,0.00,VWS V13.01,2013-04-08 02:15:00,
2013-04-07 21:20:00,36.3,19.5,0.00,ESE,109,3.1,3.6,50,0.00,,,0.00,VWS V13.01,2013-04-08 02:20:00,
2013-04-07 21:25:00,36.3,19.5,0.00,ESE,102,2.7,3.1,50,0.00,,,0.00,VWS V13.01,2013-04-08 02:25:00,
2013-04-07 21:30:00,36.3,19.5,0.00,ESE,104,3.6,4.0,50,0.00,,,0.00,VWS V13.01,2013-04-08 02:30:00,
2013-04-07 21:35:00,36.3,19.5,0.00,East,100,4.5,4.9,50,0.00,,,0.00,VWS V13.01,2013-04-08 02:35:00,
2013-04-07 21:41:00,36.3,19.5,0.00,ESE,115,4.0,4.0,50,0.00,,,0.00,VWS V13.01,2013-04-08 02:41:00,
2013-04-07 21:46:00,36.3,19.5,0.00,ESE,104,5.8,5.8,50,0.00,,,0.00,VWS V13.01,2013-04-08 02:46:00,
2013-04-07 21:51:00,36.3,19.9,0.00,ESE,121,6.3,6.3,51,0.00,,,0.00,VWS V13.01,2013-04-08 02:51:00,
2013-04-07 21:56:00,36.3,19.9,0.00,ESE,113,5.4,5.4,51,0.00,,,0.00,VWS V13.01,2013-04-08 02:56:00,
2013-04-07 22:01:00,36.3,19.9,0.00,ESE,106,4.0,4.9,51,0.00,,,0.00,VWS V13.01,2013-04-08 03:01:00,
2013-04-07 22:06:00,36.1,19.8,0.00,ESE,105,4.9,4.9,51,0.00,,,0.00,VWS V13.01,2013-04-08 03:06:00,
2013-04-07 22:11:00,36.1,19.8,0.00,ESE,106,4.0,5.4,51,0.00,,,0.00,VWS V13.01,2013-04-08 03:11:00,
2013-04-07 22:17:00,36.1,19.8,0.00,East,100,3.1,5.8,51,0.00,,,0.00,VWS V13.01,2013-04-08 03:17:00,
2013-04-07 22:22:00,36.1,19.8,0.00,ESE,103,5.8,6.3,51,0.00,,,0.00,VWS V13.01,2013-04-08 03:22:00,
2013-04-07 22:27:00,36.1,19.8,0.00,ESE,102,4.9,5.4,51,0.00,,,0.00,VWS V13.01,2013-04-08 03:27:00,
2013-04-07 22:32:00,36.1,19.8,0.00,ESE,102,3.6,3.6,51,0.00,,,0.00,VWS V13.01,2013-04-08 03:32:00,
2013-04-07 22:37:00,36.1,19.8,0.00,ESE,108,3.6,3.6,51,0.00,,,0.00,VWS V13.01,2013-04-08 03:37:00,
2013-04-07 22:42:00,36.0,20.1,0.00,ESE,108,3.6,4.0,52,0.00,,,0.00,VWS V13.01,2013-04-08 03:42:00,
2013-04-07 22:47:00,36.0,20.1,0.00,ESE,109,3.6,4.0,52,0.00,,,0.00,VWS V13.01,2013-04-08 03:47:00,
2013-04-07 22:52:00,36.0,20.1,0.00,ESE,109,2.2,3.6,52,0.00,,,0.00,VWS V13.01,2013-04-08 03:52:00,
2013-04-07 22:57:00,36.0,20.1,0.00,ESE,109,0.0,0.0,52,0.00,,,0.00,VWS V13.01,2013-04-08 03:57:00,
2013-04-07 23:00:00,36.0,20.1,0.00,ESE,108,2.7,4.0,52,0.00,,,0.00,VWS V13.01,2013-04-08 04:00:00,
2013-04-07 23:01:00,36.0,20.1,0.00,East,99,3.6,3.6,52,0.00,,,0.00,VWS V13.01,2013-04-08 04:01:00,
2013-04-07 23:06:00,36.1,20.2,0.00,ESE,103,3.1,3.6,52,0.00,,,0.00,VWS V13.01,2013-04-08 04:06:00,
2013-04-07 23:11:00,36.1,20.2,0.00,ESE,108,2.2,2.2,52,0.00,,,0.00,VWS V13.01,2013-04-08 04:11:00,
2013-04-07 23:16:00,36.1,20.2,0.00,ESE,108,2.2,2.2,52,0.00,,,0.00,VWS V13.01,2013-04-08 04:16:00,
2013-04-07 23:21:00,36.1,20.2,0.00,ESE,108,3.1,3.1,52,0.00,,,0.00,VWS V13.01,2013-04-08 04:21:00,
2013-04-07 23:26:00,36.1,20.2,0.00,ESE,115,3.6,3.6,52,0.00,,,0.00,VWS V13.01,2013-04-08 04:26:00,
2013-04-07 23:31:00,36.1,20.2,0.00,East,101,3.1,3.1,52,0.00,,,0.00,VWS V13.01,2013-04-08 04:31:00,
2013-04-07 23:36:00,36.1,19.8,0.00,ESE,102,0.0,2.2,51,0.00,,,0.00,VWS V13.01,2013-04-08 04:36:00,
2013-04-07 23:41:00,36.1,19.8,0.00,East,95,0.0,0.0,51,0.00,,,0.00,VWS V13.01,2013-04-08 04:41:00,
2013-04-07 23:46:00,36.1,19.8,0.00,East,95,0.0,2.2,51,0.00,,,0.00,VWS V13.01,2013-04-08 04:46:00,
2013-04-07 23:52:00,36.1,19.8,0.00,East,95,0.0,0.0,51,0.00,,,0.00,VWS V13.01,2013-04-08 04:52:00,
2013-04-07 23:57:00,36.1,19.8,0.00,East,95,0.0,0.0,51,0.00,,,0.00,VWS V13.01,2013-04-08 04:57:00,